Observations for ALGHERO, Italy (LIEA)

LIEA 180720Z 08003KT 020V130 CAVOK 21/18 Q1015  
LIEA 180650Z VRB02KT 7000 BKN005 19/18 Q1016
LIEA 180620Z VRB02KT 1500 BR OVC002 18/18 Q1015 
LIEA 180550Z 12004KT 080V160 1500 R20/1400U BR BKN002 18/18 Q1015   
LIEA 180520Z 12003KT 090V150 0100 R20/1300N FG BKN001 17/17 Q1015   
LIEA 180450Z VRB02KT 1000 0200W R20/0800VP1500U PRFG BKN002 17/17 Q1015 
LIEA 180420Z VRB01KT 0050 R20/0900VP1500D FG BKN002 17/17 Q1015 
LIEA 180350Z VRB01KT 3000 BR BKN002 16/16 Q1015 
LIEA 180320Z 32002KT 9999 BKN003 16/15 Q1015
LIEA 180250Z 08003KT 9999 SCT004 15/15 Q1015
LIEA 180220Z 07002KT CAVOK 15/15 Q1015  
LIEA 180150Z VRB01KT CAVOK 15/15 Q1015  
LIEA 180120Z VRB01KT CAVOK 15/15 Q1015  
LIEA 180050Z 06004KT CAVOK 16/15 Q1015  
LIEA 180020Z 07003KT CAVOK 16/16 Q1015  
LIEA 172350Z VRB01KT CAVOK 17/16 Q1016  
LIEA 172320Z 08002KT CAVOK 17/16 Q1015  
LIEA 172250Z 09002KT CAVOK 17/17 Q1015  
LIEA 172220Z VRB01KT CAVOK 17/17 Q1015  
LIEA 172150Z VRB01KT CAVOK 18/18 Q1015  
LIEA 172120Z 35003KT 330V030 CAVOK 19/17 Q1015  
LIEA 172050Z 35003KT CAVOK 19/18 Q1015  
LIEA 172020Z 35003KT 330V030 CAVOK 20/18 Q1015  
LIEA 171950Z 34003KT CAVOK 20/19 Q1014  
LIEA 171920Z 33003KT CAVOK 20/18 Q1014  
LIEA 171850Z 32004KT 290V350 CAVOK 21/18 Q1014  
LIEA 171820Z 32004KT 300V360 CAVOK 22/18 Q1014  
LIEA 171750Z 31003KT 250V040 CAVOK 23/18 Q1014  
LIEA 171720Z 34005KT 300V020 CAVOK 24/17 Q1014  
LIEA 171650Z 33006KT 300V360 CAVOK 24/17 Q1014  
LIEA 171620Z 34006KT 320V020 CAVOK 24/17 Q1014  
LIEA 171550Z 34008KT 300V010 CAVOK 24/17 Q1014  
LIEA 171520Z 33008KT CAVOK 25/17 Q1014  
LIEA 171450Z 34008KT 280V020 CAVOK 25/17 Q1014  
LIEA 171420Z 34008KT 310V010 CAVOK 25/17 Q1014  
LIEA 171350Z 32009KT 290V350 CAVOK 25/17 Q1015  
LIEA 171320Z 33009KT 290V360 CAVOK 26/16 Q1015  
LIEA 171250Z 34010KT 300V020 CAVOK 26/16 Q1015  
LIEA 171220Z 34008KT 300V020 CAVOK 26/16 Q1015  
LIEA 171150Z 33009KT 290V350 CAVOK 27/16 Q1015  
LIEA 171120Z 30006KT 250V360 CAVOK 27/16 Q1015  
LIEA 171050Z 33005KT 270V040 CAVOK 26/16 Q1015  
LIEA 171020Z 32005KT 240V040 CAVOK 26/16 Q1015  
LIEA 170950Z VRB04KT CAVOK 25/16 Q1015  
LIEA 170920Z VRB05KT CAVOK 25/17 Q1016  
LIEA 170820Z VRB03KT CAVOK 23/15 Q1016  
LIEA 170750Z VRB02KT CAVOK 22/17 Q1016  
LIEA 170720Z VRB02KT CAVOK 21/16 Q1016  
LIEA 170650Z VRB02KT CAVOK 20/16 Q1016